La Aurora Airport
MGGT : now visible

Airfield :











YOU CAN JOIN US ON...

 
LOGIN :

Register | Disclaimer

   EN    FR    IT 

 









Legend :    VFR   Marginal VFR   IFR   Intensive IFR   Very Intensive IFR
Visi :
Ceiling :
>= 8 km
>= 3000ft
5 to 8 km
1000 to 3000 ft
1500m to 5 km
500 to 1000 ft
800 to 1500m
200 to 500 ft
< 800m
< 200 ft
Symbols :   Thunderstorms  Fog  Heavy snow  Heavy precipitations  Wind > 20 kt







- Airport Elevation : 4952 ft
- IATA code : GUA


MGGT - La Aurora

CURRENT METAR :
  • 210100Z 18008KT 9999 SCT015 BKN080 20/17 Q1022 A3018

EXPIRED METARs :
  • 210000Z 18010KT 9999 FEW015 FEW022CB BKN080 20/17 Q1022 A3018 CB/PCPN NE/S/SW/WSW
  • 202300Z 18008KT 9999 SCT018 FEW024CB SCT090 21/17 Q1021 A3015 CB/PCPN/S/SSW

TAF TAF MGGT
Valid from the 21 at 00:00 until the 22 at 00:00 UTC


202300Z 2100/2124 VRB03KT 8000 SCT016 BKN80 TX26/2120Z TN18/2112Z
TEMPO 2108/2116 5000 BRDZ BKN014
BECMG 2115/2117 18008KT SCT018
TEMPO 2120/2124 8000 TSRA SCT020TCU FEW025CB
MHTG FIR / North America



MET'MAP, your aeronautical weather chart ! - Copyright ORBIFLY December 2007 - Disclaimer

ORBIFLY MET'MAP TEAM :

Programming & Development : Alexandra Zaïnal
Concept & Development : Baudouin d'Aumeries
Co-Development & Prog : Marc-Olivier Méhu
Technical & hardware support : Manuel Goepfert

Contact : metmap@orbifly.com




SOURCES & CREDITS :

   NOAA       Earth
Advisory